Sudbury, Canada
Current Conditions -  °F | °C
As of 10:00 AM on Friday 31 Oct 2014 (Local Time) from CYSB Reporting Station
Light Snow Light Snow  
Wind Chill: 15°   Ceiling: 700
Heat Index: 28°   Visibility: 0.75mi
Dew Point: 27°   Wind: 20mph
Humidity: 93%   Direction: 30°NNE
Pressure: 30.08"   Gusts: 30mph
Location:  46.49°N, 80.99°W
Report Text: CYSB 311400Z 03017G26KT 3/4SM -SN BKN007 OVC014 M02/M03 A3008 RMK SF5SC3 RVR RWY22 5000N VIA CYXU SLP202
Loading
Personal Weather Stations






























Interactive Weather Map
Tropical Storm Tracking
New forecast layout! Learn more

10-Day Weather Forecast

Advertisements
Track Severe Weather on mobile